Rio Cuarto, Argentina

1:44 AM ART on August 31, 2014 (GMT -0300)
Area De Material | Change Station
CLOSE
Current Station
Airport
Location: Rio Cuarto,
Elevation: 1381 ft
Nearby Weather Stations

Elev 1381 ft 33.12 °S, 64.23 °W | Updated 44 minutes ago

Clear
Clear
54 °F
Feels Like 54 °F
N
9
Wind Variable Wind from SW

Today
High -- | Low -- °F
--% Chance of Precip.
Yesterday
High -- | Low -- °F
Precip. -- in
7:35 AM 6:59 PM
Waxing Crescent, 27% visible
Pressure 30.01 in
Visibility -9999.0 miles
Clouds
Dew Point 45 °F
Humidity 72%
Rainfall 0.00 in
Snow Depth Not available.
UV Not available.
Pollen Not available.
Air Quality Not available.
Flu Activity Not available.
METAR SAOC 310400Z 23008KT CAVOK 12/07 Q1016

More Conditions Fewer Conditions

Pressure 30.01 in
Visibility -9999.0 miles
Clouds
Dew Point 45 °F
Humidity 72%
Rainfall 0.00 in
Snow Depth Not available.
UV Not available.
Pollen Not available.
Air Quality Not available.
Flu Activity Not available.
METAR SAOC 310400Z 23008KT CAVOK 12/07 Q1016

More Conditions Fewer Conditions

10-Day Weather Forecast

Almanac

Astronomy

Aug. 31, 2014 Rise Set
Actual Time 7:35 AM ART 6:59 PM ART
Civil Twilight 7:10 AM ART 7:23 PM ART
Nautical Twilight 6:42 AM ART 7:52 PM ART
Astronomical Twilight 6:13 AM ART 8:21 PM ART
Moon 10:54 AM ART No Moon Set
Length of Visible Light 12h 13m
Length of Day
11h 23m
Tomorrow will be 1m 55s longer.
Waxing Crescent, 27% of the Moon is Illuminated
Today
Waxing Crescent
Sep 2
First Quarter
Sep 8
Full
Sep 15
Last Quarter
Sep 24
New

Yesterday's Extremes

Country Highs Country Lows

Community

WunderPhotos

Upload Photos

1,748,783 photos uploaded!

Nearby

Snow Depth

Not available.

Earthquake Activity

City Distance Mag. Time & Date
No recent earthquake activity has been reported nearby.
Minimum magnitude displayed is 2.5.

Coastal Water Temperatures

Place Temperature
No Stations Reporting

Nearby Weather Stations